sensor_id;sensor_type;location;lat;lon;timestamp;temperature;humidity
3701;DHT22;1866;48.374;10.766;2022-11-30T00:00:13;3.80;1.00
3701;DHT22;1866;48.374;10.766;2022-11-30T00:02:41;3.70;1.00
3701;DHT22;1866;48.374;10.766;2022-11-30T00:05:09;3.70;1.00
3701;DHT22;1866;48.374;10.766;2022-11-30T00:07:36;3.70;1.00
3701;DHT22;1866;48.374;10.766;2022-11-30T00:10:06;3.70;1.00
3701;DHT22;1866;48.374;10.766;2022-11-30T00:12:34;3.70;1.00
3701;DHT22;1866;48.374;10.766;2022-11-30T00:15:01;3.70;1.00
3701;DHT22;1866;48.374;10.766;2022-11-30T00:17:27;3.70;1.00
3701;DHT22;1866;48.374;10.766;2022-11-30T00:19:54;3.60;1.00
3701;DHT22;1866;48.374;10.766;2022-11-30T00:22:21;3.60;1.00
3701;DHT22;1866;48.374;10.766;2022-11-30T00:24:48;3.50;1.00
3701;DHT22;1866;48.374;10.766;2022-11-30T00:27:17;3.50;1.00
3701;DHT22;1866;48.374;10.766;2022-11-30T00:29:43;3.70;1.00
3701;DHT22;1866;48.374;10.766;2022-11-30T00:32:10;3.60;1.00
3701;DHT22;1866;48.374;10.766;2022-11-30T00:34:38;3.50;1.00
3701;DHT22;1866;48.374;10.766;2022-11-30T00:37:05;3.40;1.00
3701;DHT22;1866;48.374;10.766;2022-11-30T00:39:32;3.40;1.00
3701;DHT22;1866;48.374;10.766;2022-11-30T00:41:58;3.40;1.00
3701;DHT22;1866;48.374;10.766;2022-11-30T00:44:27;3.30;1.00
3701;DHT22;1866;48.374;10.766;2022-11-30T00:46:53;3.40;1.00
3701;DHT22;1866;48.374;10.766;2022-11-30T00:49:20;3.50;1.00
3701;DHT22;1866;48.374;10.766;2022-11-30T00:51:47;3.40;1.00
3701;DHT22;1866;48.374;10.766;2022-11-30T00:54:14;3.50;1.00
3701;DHT22;1866;48.374;10.766;2022-11-30T00:56:41;3.50;1.00
3701;DHT22;1866;48.374;10.766;2022-11-30T00:59:08;3.30;1.00
3701;DHT22;1866;48.374;10.766;2022-11-30T01:01:36;3.40;1.00
3701;DHT22;1866;48.374;10.766;2022-11-30T01:04:04;3.30;1.00
3701;DHT22;1866;48.374;10.766;2022-11-30T01:06:31;3.40;1.00
3701;DHT22;1866;48.374;10.766;2022-11-30T01:08:58;3.40;1.00
3701;DHT22;1866;48.374;10.766;2022-11-30T01:11:26;3.60;1.00
3701;DHT22;1866;48.374;10.766;2022-11-30T01:13:54;3.50;1.00
3701;DHT22;1866;48.374;10.766;2022-11-30T01:16:23;3.40;1.00
3701;DHT22;1866;48.374;10.766;2022-11-30T01:18:52;3.30;1.00
3701;DHT22;1866;48.374;10.766;2022-11-30T01:21:22;3.40;1.00
3701;DHT22;1866;48.374;10.766;2022-11-30T01:23:49;3.40;1.00
3701;DHT22;1866;48.374;10.766;2022-11-30T01:26:17;3.30;1.00
3701;DHT22;1866;48.374;10.766;2022-11-30T01:28:48;3.30;1.00
3701;DHT22;1866;48.374;10.766;2022-11-30T01:31:16;3.30;1.00
3701;DHT22;1866;48.374;10.766;2022-11-30T01:33:42;3.30;1.00
3701;DHT22;1866;48.374;10.766;2022-11-30T01:36:17;3.30;1.00
3701;DHT22;1866;48.374;10.766;2022-11-30T01:38:45;3.50;1.00
3701;DHT22;1866;48.374;10.766;2022-11-30T01:41:14;3.50;1.00
3701;DHT22;1866;48.374;10.766;2022-11-30T01:43:43;3.40;1.00
3701;DHT22;1866;48.374;10.766;2022-11-30T01:46:34;3.40;1.00
3701;DHT22;1866;48.374;10.766;2022-11-30T01:49:15;3.30;1.00
3701;DHT22;1866;48.374;10.766;2022-11-30T01:51:47;3.40;1.00
3701;DHT22;1866;48.374;10.766;2022-11-30T01:54:17;3.30;1.00
3701;DHT22;1866;48.374;10.766;2022-11-30T01:56:48;3.30;1.00
3701;DHT22;1866;48.374;10.766;2022-11-30T01:59:16;3.30;1.00
3701;DHT22;1866;48.374;10.766;2022-11-30T02:01:45;3.30;1.00
3701;DHT22;1866;48.374;10.766;2022-11-30T02:04:14;3.30;1.00
3701;DHT22;1866;48.374;10.766;2022-11-30T02:06:44;3.20;1.00
3701;DHT22;1866;48.374;10.766;2022-11-30T02:09:12;3.20;1.00
3701;DHT22;1866;48.374;10.766;2022-11-30T02:11:40;3.20;1.00
3701;DHT22;1866;48.374;10.766;2022-11-30T02:14:17;3.20;1.00
3701;DHT22;1866;48.374;10.766;2022-11-30T02:16:55;3.20;1.00
3701;DHT22;1866;48.374;10.766;2022-11-30T02:19:53;3.30;1.00
3701;DHT22;1866;48.374;10.766;2022-11-30T02:22:34;3.20;1.00
3701;DHT22;1866;48.374;10.766;2022-11-30T02:25:09;3.20;1.00
3701;DHT22;1866;48.374;10.766;2022-11-30T02:27:49;3.20;1.00
3701;DHT22;1866;48.374;10.766;2022-11-30T02:30:21;3.10;1.00
3701;DHT22;1866;48.374;10.766;2022-11-30T02:32:53;3.10;1.00
3701;DHT22;1866;48.374;10.766;2022-11-30T02:35:24;3.30;1.00
3701;DHT22;1866;48.374;10.766;2022-11-30T02:37:53;3.20;1.00
3701;DHT22;1866;48.374;10.766;2022-11-30T02:40:20;3.30;1.00
3701;DHT22;1866;48.374;10.766;2022-11-30T02:42:49;3.20;1.00
3701;DHT22;1866;48.374;10.766;2022-11-30T02:45:21;3.30;1.00
3701;DHT22;1866;48.374;10.766;2022-11-30T02:47:53;3.20;1.00
3701;DHT22;1866;48.374;10.766;2022-11-30T02:50:26;3.20;1.00
3701;DHT22;1866;48.374;10.766;2022-11-30T02:52:54;3.10;1.00
3701;DHT22;1866;48.374;10.766;2022-11-30T02:55:21;3.10;1.00
3701;DHT22;1866;48.374;10.766;2022-11-30T02:57:48;3.20;1.00
3701;DHT22;1866;48.374;10.766;2022-11-30T03:00:16;3.10;1.00
3701;DHT22;1866;48.374;10.766;2022-11-30T03:02:44;3.10;1.00
3701;DHT22;1866;48.374;10.766;2022-11-30T03:05:11;3.10;1.00
3701;DHT22;1866;48.374;10.766;2022-11-30T03:07:38;3.10;1.00
3701;DHT22;1866;48.374;10.766;2022-11-30T03:10:06;3.40;1.00
3701;DHT22;1866;48.374;10.766;2022-11-30T03:12:33;3.20;1.00
3701;DHT22;1866;48.374;10.766;2022-11-30T03:15:00;3.30;1.00
3701;DHT22;1866;48.374;10.766;2022-11-30T03:17:27;3.30;1.00
3701;DHT22;1866;48.374;10.766;2022-11-30T03:19:55;3.20;1.00
3701;DHT22;1866;48.374;10.766;2022-11-30T03:22:22;3.10;1.00
3701;DHT22;1866;48.374;10.766;2022-11-30T03:24:49;3.10;1.00
3701;DHT22;1866;48.374;10.766;2022-11-30T03:27:16;3.10;1.00
3701;DHT22;1866;48.374;10.766;2022-11-30T03:29:43;3.10;1.00
3701;DHT22;1866;48.374;10.766;2022-11-30T03:32:10;3.10;1.00
3701;DHT22;1866;48.374;10.766;2022-11-30T03:34:37;3.10;1.00
3701;DHT22;1866;48.374;10.766;2022-11-30T03:37:05;3.10;1.00
3701;DHT22;1866;48.374;10.766;2022-11-30T03:39:32;3.20;1.00
3701;DHT22;1866;48.374;10.766;2022-11-30T03:41:58;3.20;1.00
3701;DHT22;1866;48.374;10.766;2022-11-30T03:44:25;3.20;1.00
3701;DHT22;1866;48.374;10.766;2022-11-30T03:46:52;3.30;1.00
3701;DHT22;1866;48.374;10.766;2022-11-30T03:49:19;3.20;1.00
3701;DHT22;1866;48.374;10.766;2022-11-30T03:51:46;3.20;1.00
3701;DHT22;1866;48.374;10.766;2022-11-30T03:54:14;3.20;1.00
3701;DHT22;1866;48.374;10.766;2022-11-30T03:56:41;3.20;1.00
3701;DHT22;1866;48.374;10.766;2022-11-30T03:59:08;3.20;1.00
3701;DHT22;1866;48.374;10.766;2022-11-30T04:01:34;3.20;1.00
3701;DHT22;1866;48.374;10.766;2022-11-30T04:04:01;3.20;1.00
3701;DHT22;1866;48.374;10.766;2022-11-30T04:06:28;3.30;1.00
3701;DHT22;1866;48.374;10.766;2022-11-30T04:08:55;3.20;1.00
3701;DHT22;1866;48.374;10.766;2022-11-30T04:11:23;3.30;1.00
3701;DHT22;1866;48.374;10.766;2022-11-30T04:13:50;3.20;1.00
3701;DHT22;1866;48.374;10.766;2022-11-30T04:16:17;3.20;1.00
3701;DHT22;1866;48.374;10.766;2022-11-30T04:18:43;3.20;1.00
3701;DHT22;1866;48.374;10.766;2022-11-30T04:21:10;3.20;1.00
3701;DHT22;1866;48.374;10.766;2022-11-30T04:23:39;3.20;1.00
3701;DHT22;1866;48.374;10.766;2022-11-30T04:26:07;3.30;1.00
3701;DHT22;1866;48.374;10.766;2022-11-30T04:28:35;3.20;1.00
3701;DHT22;1866;48.374;10.766;2022-11-30T04:31:02;3.30;1.00
3701;DHT22;1866;48.374;10.766;2022-11-30T04:33:29;3.30;1.00
3701;DHT22;1866;48.374;10.766;2022-11-30T04:35:58;3.20;1.00
3701;DHT22;1866;48.374;10.766;2022-11-30T04:38:26;3.30;1.00
3701;DHT22;1866;48.374;10.766;2022-11-30T04:40:54;3.30;1.00
3701;DHT22;1866;48.374;10.766;2022-11-30T04:43:21;3.30;1.00
3701;DHT22;1866;48.374;10.766;2022-11-30T04:45:50;3.30;1.00
3701;DHT22;1866;48.374;10.766;2022-11-30T04:48:18;3.20;1.00
3701;DHT22;1866;48.374;10.766;2022-11-30T04:50:44;3.20;1.00
3701;DHT22;1866;48.374;10.766;2022-11-30T04:53:11;3.30;1.00
3701;DHT22;1866;48.374;10.766;2022-11-30T04:55:38;3.30;1.00
3701;DHT22;1866;48.374;10.766;2022-11-30T04:58:05;3.40;1.00
3701;DHT22;1866;48.374;10.766;2022-11-30T05:00:33;3.40;1.00
3701;DHT22;1866;48.374;10.766;2022-11-30T05:03:02;3.40;1.00
3701;DHT22;1866;48.374;10.766;2022-11-30T05:05:29;3.30;1.00
3701;DHT22;1866;48.374;10.766;2022-11-30T05:07:57;3.30;1.00
3701;DHT22;1866;48.374;10.766;2022-11-30T05:10:25;3.40;1.00
3701;DHT22;1866;48.374;10.766;2022-11-30T05:12:52;3.40;1.00
3701;DHT22;1866;48.374;10.766;2022-11-30T05:15:20;3.50;1.00
3701;DHT22;1866;48.374;10.766;2022-11-30T05:17:46;3.40;1.00
3701;DHT22;1866;48.374;10.766;2022-11-30T05:20:15;3.40;1.00
3701;DHT22;1866;48.374;10.766;2022-11-30T05:22:42;3.40;1.00
3701;DHT22;1866;48.374;10.766;2022-11-30T05:25:09;3.40;1.00
3701;DHT22;1866;48.374;10.766;2022-11-30T05:27:36;3.40;1.00
3701;DHT22;1866;48.374;10.766;2022-11-30T05:30:04;3.30;1.00
3701;DHT22;1866;48.374;10.766;2022-11-30T05:32:31;3.30;1.00
3701;DHT22;1866;48.374;10.766;2022-11-30T05:34:58;3.30;1.00
3701;DHT22;1866;48.374;10.766;2022-11-30T05:37:26;3.30;1.00
3701;DHT22;1866;48.374;10.766;2022-11-30T05:39:53;3.30;1.00
3701;DHT22;1866;48.374;10.766;2022-11-30T05:42:21;3.20;1.00
3701;DHT22;1866;48.374;10.766;2022-11-30T05:44:48;3.30;1.00
3701;DHT22;1866;48.374;10.766;2022-11-30T05:47:16;3.40;1.00
3701;DHT22;1866;48.374;10.766;2022-11-30T05:49:43;3.30;1.00
3701;DHT22;1866;48.374;10.766;2022-11-30T05:52:10;3.30;1.00
3701;DHT22;1866;48.374;10.766;2022-11-30T05:54:38;3.30;1.00
3701;DHT22;1866;48.374;10.766;2022-11-30T05:57:05;3.30;1.00
3701;DHT22;1866;48.374;10.766;2022-11-30T05:59:31;3.30;1.00
3701;DHT22;1866;48.374;10.766;2022-11-30T06:01:58;3.30;1.00
3701;DHT22;1866;48.374;10.766;2022-11-30T06:04:25;3.30;1.00
3701;DHT22;1866;48.374;10.766;2022-11-30T06:06:52;3.30;1.00
3701;DHT22;1866;48.374;10.766;2022-11-30T06:09:20;3.30;1.00
3701;DHT22;1866;48.374;10.766;2022-11-30T06:11:48;3.30;1.00
3701;DHT22;1866;48.374;10.766;2022-11-30T06:14:15;3.30;1.00
3701;DHT22;1866;48.374;10.766;2022-11-30T06:16:42;3.40;1.00
3701;DHT22;1866;48.374;10.766;2022-11-30T06:19:08;3.30;1.00
3701;DHT22;1866;48.374;10.766;2022-11-30T06:21:35;3.30;1.00
3701;DHT22;1866;48.374;10.766;2022-11-30T06:24:02;3.30;1.00
3701;DHT22;1866;48.374;10.766;2022-11-30T06:26:29;3.20;1.00
3701;DHT22;1866;48.374;10.766;2022-11-30T06:28:57;3.30;1.00
3701;DHT22;1866;48.374;10.766;2022-11-30T06:31:24;3.30;1.00
3701;DHT22;1866;48.374;10.766;2022-11-30T06:33:51;3.30;1.00
3701;DHT22;1866;48.374;10.766;2022-11-30T06:36:21;3.30;1.00
3701;DHT22;1866;48.374;10.766;2022-11-30T06:38:48;3.40;1.00
3701;DHT22;1866;48.374;10.766;2022-11-30T06:41:15;3.30;1.00
3701;DHT22;1866;48.374;10.766;2022-11-30T06:43:42;3.30;1.00
3701;DHT22;1866;48.374;10.766;2022-11-30T06:46:10;3.30;1.00
3701;DHT22;1866;48.374;10.766;2022-11-30T06:48:37;3.30;1.00
3701;DHT22;1866;48.374;10.766;2022-11-30T06:51:05;3.30;1.00
3701;DHT22;1866;48.374;10.766;2022-11-30T06:53:32;3.30;1.00
3701;DHT22;1866;48.374;10.766;2022-11-30T06:56:03;3.20;1.00
3701;DHT22;1866;48.374;10.766;2022-11-30T06:58:30;3.30;1.00
3701;DHT22;1866;48.374;10.766;2022-11-30T07:00:57;3.30;1.00
3701;DHT22;1866;48.374;10.766;2022-11-30T07:03:25;3.30;1.00
3701;DHT22;1866;48.374;10.766;2022-11-30T07:05:52;3.30;1.00
3701;DHT22;1866;48.374;10.766;2022-11-30T07:08:19;3.30;1.00
3701;DHT22;1866;48.374;10.766;2022-11-30T07:10:46;3.40;1.00
3701;DHT22;1866;48.374;10.766;2022-11-30T07:13:15;3.40;1.00
3701;DHT22;1866;48.374;10.766;2022-11-30T07:15:42;3.30;1.00
3701;DHT22;1866;48.374;10.766;2022-11-30T07:18:10;3.30;1.00
3701;DHT22;1866;48.374;10.766;2022-11-30T07:20:38;3.30;1.00
3701;DHT22;1866;48.374;10.766;2022-11-30T07:23:05;3.30;1.00
3701;DHT22;1866;48.374;10.766;2022-11-30T07:25:46;3.30;1.00
3701;DHT22;1866;48.374;10.766;2022-11-30T07:28:32;3.40;1.00
3701;DHT22;1866;48.374;10.766;2022-11-30T07:31:00;3.40;1.00
3701;DHT22;1866;48.374;10.766;2022-11-30T07:33:27;3.30;1.00
3701;DHT22;1866;48.374;10.766;2022-11-30T07:35:56;3.30;1.00
3701;DHT22;1866;48.374;10.766;2022-11-30T07:38:23;3.40;1.00
3701;DHT22;1866;48.374;10.766;2022-11-30T07:40:50;3.50;1.00
3701;DHT22;1866;48.374;10.766;2022-11-30T07:43:17;3.40;1.00
3701;DHT22;1866;48.374;10.766;2022-11-30T07:45:50;3.50;1.00
3701;DHT22;1866;48.374;10.766;2022-11-30T07:48:17;3.40;1.00
3701;DHT22;1866;48.374;10.766;2022-11-30T07:50:44;3.50;1.00
3701;DHT22;1866;48.374;10.766;2022-11-30T07:53:13;3.40;1.00
3701;DHT22;1866;48.374;10.766;2022-11-30T07:55:40;3.40;1.00
3701;DHT22;1866;48.374;10.766;2022-11-30T07:58:07;3.40;1.00
3701;DHT22;1866;48.374;10.766;2022-11-30T08:00:35;3.40;1.00
3701;DHT22;1866;48.374;10.766;2022-11-30T08:03:02;3.50;1.00
3701;DHT22;1866;48.374;10.766;2022-11-30T08:05:29;3.50;1.00
3701;DHT22;1866;48.374;10.766;2022-11-30T08:07:56;3.40;1.00
3701;DHT22;1866;48.374;10.766;2022-11-30T08:10:24;3.40;99.90
3701;DHT22;1866;48.374;10.766;2022-11-30T08:12:52;3.40;99.90
3701;DHT22;1866;48.374;10.766;2022-11-30T08:15:19;3.40;99.90
3701;DHT22;1866;48.374;10.766;2022-11-30T08:17:46;3.40;99.90
3701;DHT22;1866;48.374;10.766;2022-11-30T08:20:14;3.50;99.90
3701;DHT22;1866;48.374;10.766;2022-11-30T08:22:41;3.50;99.90
3701;DHT22;1866;48.374;10.766;2022-11-30T08:25:08;3.50;99.90
3701;DHT22;1866;48.374;10.766;2022-11-30T08:27:36;3.40;99.90
3701;DHT22;1866;48.374;10.766;2022-11-30T08:30:04;3.60;99.90
3701;DHT22;1866;48.374;10.766;2022-11-30T08:32:31;3.50;99.90
3701;DHT22;1866;48.374;10.766;2022-11-30T08:34:58;3.60;99.90
3701;DHT22;1866;48.374;10.766;2022-11-30T08:37:25;3.60;99.90
3701;DHT22;1866;48.374;10.766;2022-11-30T08:39:52;3.50;99.90
3701;DHT22;1866;48.374;10.766;2022-11-30T08:42:19;3.50;99.90
3701;DHT22;1866;48.374;10.766;2022-11-30T08:44:47;3.50;99.90
3701;DHT22;1866;48.374;10.766;2022-11-30T08:47:14;3.60;99.90
3701;DHT22;1866;48.374;10.766;2022-11-30T08:49:40;3.50;99.90
3701;DHT22;1866;48.374;10.766;2022-11-30T08:52:07;3.60;99.90
3701;DHT22;1866;48.374;10.766;2022-11-30T08:54:34;3.60;99.90
3701;DHT22;1866;48.374;10.766;2022-11-30T08:57:02;3.70;99.90
3701;DHT22;1866;48.374;10.766;2022-11-30T08:59:30;3.70;99.90
3701;DHT22;1866;48.374;10.766;2022-11-30T09:01:58;3.70;99.90
3701;DHT22;1866;48.374;10.766;2022-11-30T09:04:25;3.70;99.90
3701;DHT22;1866;48.374;10.766;2022-11-30T09:06:52;3.70;99.90
3701;DHT22;1866;48.374;10.766;2022-11-30T09:09:24;3.70;99.90
3701;DHT22;1866;48.374;10.766;2022-11-30T09:11:51;3.80;99.90
3701;DHT22;1866;48.374;10.766;2022-11-30T09:14:18;3.80;99.90
3701;DHT22;1866;48.374;10.766;2022-11-30T09:16:44;3.80;99.90
3701;DHT22;1866;48.374;10.766;2022-11-30T09:19:13;3.80;99.90
3701;DHT22;1866;48.374;10.766;2022-11-30T09:21:39;3.80;99.90
3701;DHT22;1866;48.374;10.766;2022-11-30T09:24:06;3.80;99.90
3701;DHT22;1866;48.374;10.766;2022-11-30T09:26:33;3.80;99.90
3701;DHT22;1866;48.374;10.766;2022-11-30T09:29:00;3.80;99.90
3701;DHT22;1866;48.374;10.766;2022-11-30T09:31:27;3.90;99.90
3701;DHT22;1866;48.374;10.766;2022-11-30T09:33:55;3.90;99.90
3701;DHT22;1866;48.374;10.766;2022-11-30T09:36:24;4.00;99.90
3701;DHT22;1866;48.374;10.766;2022-11-30T09:38:53;4.00;99.90
3701;DHT22;1866;48.374;10.766;2022-11-30T09:41:47;4.00;99.90
3701;DHT22;1866;48.374;10.766;2022-11-30T09:44:23;4.00;99.90
3701;DHT22;1866;48.374;10.766;2022-11-30T09:46:58;4.00;99.90
3701;DHT22;1866;48.374;10.766;2022-11-30T09:49:29;4.00;99.90
3701;DHT22;1866;48.374;10.766;2022-11-30T09:52:01;4.10;99.90
3701;DHT22;1866;48.374;10.766;2022-11-30T09:54:34;4.10;99.90
3701;DHT22;1866;48.374;10.766;2022-11-30T09:57:04;4.00;99.90
3701;DHT22;1866;48.374;10.766;2022-11-30T09:59:50;4.20;99.90
3701;DHT22;1866;48.374;10.766;2022-11-30T10:02:18;4.20;99.90
3701;DHT22;1866;48.374;10.766;2022-11-30T10:04:46;4.30;99.90
3701;DHT22;1866;48.374;10.766;2022-11-30T10:07:27;4.20;99.90
3701;DHT22;1866;48.374;10.766;2022-11-30T10:10:04;4.20;99.90
3701;DHT22;1866;48.374;10.766;2022-11-30T10:12:37;4.10;99.90
3701;DHT22;1866;48.374;10.766;2022-11-30T10:15:22;4.20;99.90
3701;DHT22;1866;48.374;10.766;2022-11-30T10:17:53;4.30;99.90
3701;DHT22;1866;48.374;10.766;2022-11-30T10:20:30;4.20;99.90
3701;DHT22;1866;48.374;10.766;2022-11-30T10:23:10;4.20;99.90
3701;DHT22;1866;48.374;10.766;2022-11-30T10:25:48;4.20;99.90
3701;DHT22;1866;48.374;10.766;2022-11-30T10:28:22;4.10;99.90
3701;DHT22;1866;48.374;10.766;2022-11-30T10:30:54;4.20;99.90
3701;DHT22;1866;48.374;10.766;2022-11-30T10:33:25;4.20;99.90
3701;DHT22;1866;48.374;10.766;2022-11-30T10:35:54;4.10;99.90
3701;DHT22;1866;48.374;10.766;2022-11-30T10:38:27;4.20;99.90
3701;DHT22;1866;48.374;10.766;2022-11-30T10:40:59;4.20;99.90
3701;DHT22;1866;48.374;10.766;2022-11-30T10:43:30;4.20;99.90
3701;DHT22;1866;48.374;10.766;2022-11-30T10:45:58;4.30;99.90
3701;DHT22;1866;48.374;10.766;2022-11-30T10:48:32;4.30;99.90
3701;DHT22;1866;48.374;10.766;2022-11-30T10:51:00;4.20;98.60
3701;DHT22;1866;48.374;10.766;2022-11-30T10:53:30;4.20;96.60
3701;DHT22;1866;48.374;10.766;2022-11-30T10:56:00;4.30;98.20
3701;DHT22;1866;48.374;10.766;2022-11-30T10:58:32;4.30;90.10
3701;DHT22;1866;48.374;10.766;2022-11-30T11:01:03;4.20;72.50
3701;DHT22;1866;48.374;10.766;2022-11-30T11:03:30;4.30;69.00
3701;DHT22;1866;48.374;10.766;2022-11-30T11:06:14;4.20;62.30
3701;DHT22;1866;48.374;10.766;2022-11-30T11:08:45;4.40;74.40
3701;DHT22;1866;48.374;10.766;2022-11-30T11:11:31;4.30;60.50
3701;DHT22;1866;48.374;10.766;2022-11-30T11:14:17;4.30;60.70
3701;DHT22;1866;48.374;10.766;2022-11-30T11:16:53;4.30;53.60
3701;DHT22;1866;48.374;10.766;2022-11-30T11:19:30;4.40;64.60
3701;DHT22;1866;48.374;10.766;2022-11-30T11:21:58;4.30;50.40
3701;DHT22;1866;48.374;10.766;2022-11-30T11:24:27;4.40;40.80
3701;DHT22;1866;48.374;10.766;2022-11-30T11:26:55;4.30;26.30
3701;DHT22;1866;48.374;10.766;2022-11-30T11:29:25;4.30;24.20
3701;DHT22;1866;48.374;10.766;2022-11-30T11:32:17;4.20;11.10
3701;DHT22;1866;48.374;10.766;2022-11-30T11:34:46;4.30;20.50
3701;DHT22;1866;48.374;10.766;2022-11-30T11:37:17;4.40;31.50
3701;DHT22;1866;48.374;10.766;2022-11-30T11:39:57;4.30;12.10
3701;DHT22;1866;48.374;10.766;2022-11-30T11:42:26;4.30;22.30
3701;DHT22;1866;48.374;10.766;2022-11-30T11:44:56;4.20;7.30
3701;DHT22;1866;48.374;10.766;2022-11-30T11:47:25;4.20;7.80
3701;DHT22;1866;48.374;10.766;2022-11-30T11:50:05;4.30;9.10
3701;DHT22;1866;48.374;10.766;2022-11-30T11:52:33;4.20;9.80
3701;DHT22;1866;48.374;10.766;2022-11-30T11:55:04;4.10;1.00
3701;DHT22;1866;48.374;10.766;2022-11-30T11:57:36;4.10;1.00
3701;DHT22;1866;48.374;10.766;2022-11-30T12:00:09;4.10;1.00
3701;DHT22;1866;48.374;10.766;2022-11-30T12:02:47;4.10;1.00
3701;DHT22;1866;48.374;10.766;2022-11-30T12:05:17;4.10;1.00
3701;DHT22;1866;48.374;10.766;2022-11-30T12:07:58;4.10;1.00
3701;DHT22;1866;48.374;10.766;2022-11-30T12:10:33;4.20;6.10
3701;DHT22;1866;48.374;10.766;2022-11-30T12:13:10;4.20;1.60
3701;DHT22;1866;48.374;10.766;2022-11-30T12:15:43;4.10;1.00
3701;DHT22;1866;48.374;10.766;2022-11-30T12:18:19;4.10;1.00
3701;DHT22;1866;48.374;10.766;2022-11-30T12:20:53;4.20;1.00
3701;DHT22;1866;48.374;10.766;2022-11-30T12:23:34;4.20;1.00
3701;DHT22;1866;48.374;10.766;2022-11-30T12:26:11;4.10;1.00
3701;DHT22;1866;48.374;10.766;2022-11-30T12:28:46;4.10;1.00
3701;DHT22;1866;48.374;10.766;2022-11-30T12:31:18;4.10;1.00
3701;DHT22;1866;48.374;10.766;2022-11-30T12:33:56;4.10;1.00
3701;DHT22;1866;48.374;10.766;2022-11-30T12:36:32;4.20;1.00
3701;DHT22;1866;48.374;10.766;2022-11-30T12:39:07;4.20;1.00
3701;DHT22;1866;48.374;10.766;2022-11-30T12:41:41;4.20;1.00
3701;DHT22;1866;48.374;10.766;2022-11-30T12:47:23;4.30;1.00
3701;DHT22;1866;48.374;10.766;2022-11-30T12:50:04;4.20;1.00
3701;DHT22;1866;48.374;10.766;2022-11-30T12:52:43;4.20;1.00
3701;DHT22;1866;48.374;10.766;2022-11-30T12:55:23;4.20;1.00
3701;DHT22;1866;48.374;10.766;2022-11-30T12:58:00;4.10;1.00
3701;DHT22;1866;48.374;10.766;2022-11-30T13:00:37;4.20;1.00
3701;DHT22;1866;48.374;10.766;2022-11-30T13:03:37;4.20;1.00
3701;DHT22;1866;48.374;10.766;2022-11-30T13:06:10;4.20;1.00
3701;DHT22;1866;48.374;10.766;2022-11-30T13:08:44;4.20;1.00
3701;DHT22;1866;48.374;10.766;2022-11-30T13:11:17;4.10;1.00
3701;DHT22;1866;48.374;10.766;2022-11-30T13:13:49;4.10;1.00
3701;DHT22;1866;48.374;10.766;2022-11-30T13:16:16;4.00;1.00
3701;DHT22;1866;48.374;10.766;2022-11-30T13:18:44;4.10;1.00
3701;DHT22;1866;48.374;10.766;2022-11-30T13:21:16;4.10;4.90
3701;DHT22;1866;48.374;10.766;2022-11-30T13:23:53;4.00;8.60
3701;DHT22;1866;48.374;10.766;2022-11-30T13:26:26;3.90;1.00
3701;DHT22;1866;48.374;10.766;2022-11-30T13:29:06;4.00;5.10
3701;DHT22;1866;48.374;10.766;2022-11-30T13:31:42;3.90;4.60
3701;DHT22;1866;48.374;10.766;2022-11-30T13:34:25;3.90;2.60
3701;DHT22;1866;48.374;10.766;2022-11-30T13:37:00;3.80;1.00
3701;DHT22;1866;48.374;10.766;2022-11-30T13:39:30;3.90;10.10
3701;DHT22;1866;48.374;10.766;2022-11-30T13:42:35;3.80;9.00
3701;DHT22;1866;48.374;10.766;2022-11-30T13:45:22;3.90;19.70
3701;DHT22;1866;48.374;10.766;2022-11-30T13:47:52;3.90;20.70
3701;DHT22;1866;48.374;10.766;2022-11-30T13:50:24;3.90;27.60
3701;DHT22;1866;48.374;10.766;2022-11-30T13:56:03;3.90;38.00
3701;DHT22;1866;48.374;10.766;2022-11-30T13:58:32;3.90;31.90
3701;DHT22;1866;48.374;10.766;2022-11-30T14:01:23;3.90;45.10
3701;DHT22;1866;48.374;10.766;2022-11-30T14:04:28;4.00;65.60
3701;DHT22;1866;48.374;10.766;2022-11-30T14:06:56;3.90;48.50
3701;DHT22;1866;48.374;10.766;2022-11-30T14:09:57;3.80;33.80
3701;DHT22;1866;48.374;10.766;2022-11-30T14:12:59;3.80;28.90
3701;DHT22;1866;48.374;10.766;2022-11-30T14:18:23;3.80;32.90
3701;DHT22;1866;48.374;10.766;2022-11-30T14:20:52;3.70;32.00
3701;DHT22;1866;48.374;10.766;2022-11-30T14:23:26;3.70;29.20
3701;DHT22;1866;48.374;10.766;2022-11-30T14:25:56;3.80;41.50
3701;DHT22;1866;48.374;10.766;2022-11-30T14:31:15;3.70;42.90
3701;DHT22;1866;48.374;10.766;2022-11-30T14:33:49;3.70;45.70
3701;DHT22;1866;48.374;10.766;2022-11-30T14:36:17;3.80;64.40
3701;DHT22;1866;48.374;10.766;2022-11-30T14:38:45;3.70;46.00
3701;DHT22;1866;48.374;10.766;2022-11-30T14:41:20;3.70;34.30
3701;DHT22;1866;48.374;10.766;2022-11-30T14:44:02;3.70;42.20
3701;DHT22;1866;48.374;10.766;2022-11-30T14:46:30;3.70;42.30
3701;DHT22;1866;48.374;10.766;2022-11-30T14:49:12;3.80;47.50
3701;DHT22;1866;48.374;10.766;2022-11-30T14:51:41;3.80;31.50
3701;DHT22;1866;48.374;10.766;2022-11-30T14:54:19;3.70;26.40
3701;DHT22;1866;48.374;10.766;2022-11-30T14:56:49;3.80;32.80
3701;DHT22;1866;48.374;10.766;2022-11-30T14:59:35;3.80;34.80
3701;DHT22;1866;48.374;10.766;2022-11-30T15:02:10;3.80;30.90
3701;DHT22;1866;48.374;10.766;2022-11-30T15:04:41;3.70;32.30
3701;DHT22;1866;48.374;10.766;2022-11-30T15:07:11;3.90;65.30
3701;DHT22;1866;48.374;10.766;2022-11-30T15:09:42;3.80;37.80
3701;DHT22;1866;48.374;10.766;2022-11-30T15:12:09;3.80;20.10
3701;DHT22;1866;48.374;10.766;2022-11-30T15:14:36;3.90;38.40
3701;DHT22;1866;48.374;10.766;2022-11-30T15:17:13;3.90;27.80
3701;DHT22;1866;48.374;10.766;2022-11-30T15:19:46;3.80;18.90
3701;DHT22;1866;48.374;10.766;2022-11-30T15:22:23;3.80;17.70
3701;DHT22;1866;48.374;10.766;2022-11-30T15:24:50;3.70;10.10
3701;DHT22;1866;48.374;10.766;2022-11-30T15:27:19;3.90;16.30
3701;DHT22;1866;48.374;10.766;2022-11-30T15:29:54;3.70;6.70
3701;DHT22;1866;48.374;10.766;2022-11-30T15:32:23;3.80;14.30
3701;DHT22;1866;48.374;10.766;2022-11-30T15:34:54;3.70;1.00
3701;DHT22;1866;48.374;10.766;2022-11-30T15:37:28;3.80;1.00
3701;DHT22;1866;48.374;10.766;2022-11-30T15:39:57;3.90;1.00
3701;DHT22;1866;48.374;10.766;2022-11-30T15:42:28;4.00;1.00
3701;DHT22;1866;48.374;10.766;2022-11-30T15:45:09;3.70;1.00
3701;DHT22;1866;48.374;10.766;2022-11-30T15:47:38;3.80;1.00
3701;DHT22;1866;48.374;10.766;2022-11-30T15:53:25;4.00;1.00
3701;DHT22;1866;48.374;10.766;2022-11-30T15:55:54;3.90;1.00
3701;DHT22;1866;48.374;10.766;2022-11-30T15:58:35;3.80;1.00
3701;DHT22;1866;48.374;10.766;2022-11-30T16:01:09;3.60;1.00
3701;DHT22;1866;48.374;10.766;2022-11-30T16:03:58;3.70;1.00
3701;DHT22;1866;48.374;10.766;2022-11-30T16:06:27;3.60;1.00
3701;DHT22;1866;48.374;10.766;2022-11-30T16:08:56;3.60;1.00
3701;DHT22;1866;48.374;10.766;2022-11-30T16:11:23;3.60;1.00
3701;DHT22;1866;48.374;10.766;2022-11-30T16:13:50;3.60;1.00
3701;DHT22;1866;48.374;10.766;2022-11-30T16:16:18;3.60;1.00
3701;DHT22;1866;48.374;10.766;2022-11-30T16:18:46;3.60;1.00
3701;DHT22;1866;48.374;10.766;2022-11-30T16:21:16;3.60;1.00
3701;DHT22;1866;48.374;10.766;2022-11-30T16:23:44;3.60;1.00
3701;DHT22;1866;48.374;10.766;2022-11-30T16:26:14;3.70;1.00
3701;DHT22;1866;48.374;10.766;2022-11-30T16:28:42;3.60;1.00
3701;DHT22;1866;48.374;10.766;2022-11-30T16:31:13;3.60;1.00
3701;DHT22;1866;48.374;10.766;2022-11-30T16:33:42;3.50;1.00
3701;DHT22;1866;48.374;10.766;2022-11-30T16:36:13;3.50;1.00
3701;DHT22;1866;48.374;10.766;2022-11-30T16:38:40;3.50;1.00
3701;DHT22;1866;48.374;10.766;2022-11-30T16:41:17;3.50;1.00
3701;DHT22;1866;48.374;10.766;2022-11-30T16:43:45;3.50;1.00
3701;DHT22;1866;48.374;10.766;2022-11-30T16:46:13;3.50;1.00
3701;DHT22;1866;48.374;10.766;2022-11-30T16:48:41;3.40;1.00